sensor_id;sensor_type;location;lat;lon;timestamp;pressure;altitude;pressure_sealevel;temperature;humidity
11212;BME280;5663;50.864;12.096;2023-11-21T00:01:52;98731.50;;;9.83;76.65
11212;BME280;5663;50.864;12.096;2023-11-21T00:04:20;98734.22;;;9.81;76.90
11212;BME280;5663;50.864;12.096;2023-11-21T00:06:50;98727.97;;;9.84;76.62
11212;BME280;5663;50.864;12.096;2023-11-21T00:09:18;98733.19;;;9.84;76.70
11212;BME280;5663;50.864;12.096;2023-11-21T00:11:48;98731.41;;;9.84;76.41
11212;BME280;5663;50.864;12.096;2023-11-21T00:14:17;98732.25;;;9.85;76.59
11212;BME280;5663;50.864;12.096;2023-11-21T00:16:46;98736.59;;;9.84;76.89
11212;BME280;5663;50.864;12.096;2023-11-21T00:19:14;98730.50;;;9.85;76.68
11212;BME280;5663;50.864;12.096;2023-11-21T00:21:43;98723.63;;;9.84;76.75
11212;BME280;5663;50.864;12.096;2023-11-21T00:24:14;98726.16;;;9.86;76.72
11212;BME280;5663;50.864;12.096;2023-11-21T00:26:43;98729.56;;;9.86;76.93
11212;BME280;5663;50.864;12.096;2023-11-21T00:29:13;98735.69;;;9.85;76.83
11212;BME280;5663;50.864;12.096;2023-11-21T00:31:44;98705.78;;;9.64;76.82
11212;BME280;5663;50.864;12.096;2023-11-21T00:34:13;98732.50;;;9.80;77.23
11212;BME280;5663;50.864;12.096;2023-11-21T00:36:41;98733.34;;;9.81;76.93
11212;BME280;5663;50.864;12.096;2023-11-21T00:39:09;98740.47;;;9.77;77.23
11212;BME280;5663;50.864;12.096;2023-11-21T00:41:39;98741.41;;;9.76;77.05
11212;BME280;5663;50.864;12.096;2023-11-21T00:44:08;98747.53;;;9.75;77.22
11212;BME280;5663;50.864;12.096;2023-11-21T00:46:36;98742.50;;;9.72;77.23
11212;BME280;5663;50.864;12.096;2023-11-21T00:49:04;98745.94;;;9.73;77.48
11212;BME280;5663;50.864;12.096;2023-11-21T00:51:32;98746.97;;;9.70;77.38
11212;BME280;5663;50.864;12.096;2023-11-21T00:54:01;98739.19;;;9.70;77.76
11212;BME280;5663;50.864;12.096;2023-11-21T00:56:29;98752.81;;;9.74;77.68
11212;BME280;5663;50.864;12.096;2023-11-21T00:58:58;98735.75;;;9.70;77.61
11212;BME280;5663;50.864;12.096;2023-11-21T01:01:27;98750.13;;;9.75;77.68
11212;BME280;5663;50.864;12.096;2023-11-21T01:03:55;98751.72;;;9.78;77.68
11212;BME280;5663;50.864;12.096;2023-11-21T01:06:23;98749.19;;;9.76;77.69
11212;BME280;5663;50.864;12.096;2023-11-21T01:08:51;98735.75;;;9.70;77.70
11212;BME280;5663;50.864;12.096;2023-11-21T01:11:19;98744.75;;;9.78;77.46
11212;BME280;5663;50.864;12.096;2023-11-21T01:13:46;98754.31;;;9.78;77.41
11212;BME280;5663;50.864;12.096;2023-11-21T01:16:16;98742.50;;;9.72;77.73
11212;BME280;5663;50.864;12.096;2023-11-21T01:18:43;98753.66;;;9.74;77.65
11212;BME280;5663;50.864;12.096;2023-11-21T01:21:11;98754.31;;;9.78;77.47
11212;BME280;5663;50.864;12.096;2023-11-21T01:23:39;98758.66;;;9.77;77.46
11212;BME280;5663;50.864;12.096;2023-11-21T01:26:07;98754.50;;;9.75;77.84
11212;BME280;5663;50.864;12.096;2023-11-21T01:28:35;98764.88;;;9.75;77.98
11212;BME280;5663;50.864;12.096;2023-11-21T01:31:03;98757.09;;;9.75;77.64
11212;BME280;5663;50.864;12.096;2023-11-21T01:33:33;98732.75;;;9.61;77.72
11212;BME280;5663;50.864;12.096;2023-11-21T01:36:01;98761.34;;;9.76;77.76
11212;BME280;5663;50.864;12.096;2023-11-21T01:38:30;98761.25;;;9.77;77.67
11212;BME280;5663;50.864;12.096;2023-11-21T01:40:58;98767.38;;;9.76;77.66
11212;BME280;5663;50.864;12.096;2023-11-21T01:43:29;98765.72;;;9.75;77.72
11212;BME280;5663;50.864;12.096;2023-11-21T01:46:16;98765.72;;;9.75;77.70
11212;BME280;5663;50.864;12.096;2023-11-21T01:48:45;98771.72;;;9.76;77.85
11212;BME280;5663;50.864;12.096;2023-11-21T01:51:13;98774.22;;;9.77;77.75
11212;BME280;5663;50.864;12.096;2023-11-21T01:57:34;98772.56;;;9.76;77.93
11212;BME280;5663;50.864;12.096;2023-11-21T02:00:05;98746.75;;;9.59;77.97
11212;BME280;5663;50.864;12.096;2023-11-21T02:02:42;98773.41;;;9.77;77.84
11212;BME280;5663;50.864;12.096;2023-11-21T02:05:15;98778.69;;;9.75;78.06
11212;BME280;5663;50.864;12.096;2023-11-21T02:07:45;98782.00;;;9.77;77.78
11212;BME280;5663;50.864;12.096;2023-11-21T02:10:15;98781.13;;;9.78;77.89
11212;BME280;5663;50.864;12.096;2023-11-21T02:12:43;98783.63;;;9.80;77.82
11212;BME280;5663;50.864;12.096;2023-11-21T02:15:12;98786.31;;;9.78;77.84
11212;BME280;5663;50.864;12.096;2023-11-21T02:17:46;98765.03;;;9.72;77.73
11212;BME280;5663;50.864;12.096;2023-11-21T02:20:24;98783.44;;;9.83;77.73
11212;BME280;5663;50.864;12.096;2023-11-21T02:22:55;98779.91;;;9.84;77.58
11212;BME280;5663;50.864;12.096;2023-11-21T02:25:26;98779.91;;;9.84;77.92
11212;BME280;5663;50.864;12.096;2023-11-21T02:27:55;98754.94;;;9.67;77.55
11212;BME280;5663;50.864;12.096;2023-11-21T02:30:23;98738.84;;;9.60;77.71
11212;BME280;5663;50.864;12.096;2023-11-21T02:32:54;98763.09;;;9.75;77.61
11212;BME280;5663;50.864;12.096;2023-11-21T02:35:23;98769.03;;;9.77;77.73
11212;BME280;5663;50.864;12.096;2023-11-21T02:37:52;98773.50;;;9.75;77.96
11212;BME280;5663;50.864;12.096;2023-11-21T02:40:21;98772.72;;;9.73;77.76
11212;BME280;5663;50.864;12.096;2023-11-21T02:42:51;98784.81;;;9.74;78.07
11212;BME280;5663;50.864;12.096;2023-11-21T02:45:20;98780.53;;;9.73;77.83
11212;BME280;5663;50.864;12.096;2023-11-21T02:47:49;98767.34;;;9.62;77.93
11212;BME280;5663;50.864;12.096;2023-11-21T02:50:16;98779.13;;;9.68;78.41
11212;BME280;5663;50.864;12.096;2023-11-21T02:52:45;98778.13;;;9.70;78.24
11212;BME280;5663;50.864;12.096;2023-11-21T02:55:13;98779.78;;;9.71;78.06
11212;BME280;5663;50.864;12.096;2023-11-21T02:57:42;98779.78;;;9.71;78.18
11212;BME280;5663;50.864;12.096;2023-11-21T03:00:11;98751.53;;;9.51;78.06
11212;BME280;5663;50.864;12.096;2023-11-21T03:02:41;98784.97;;;9.71;78.53
11212;BME280;5663;50.864;12.096;2023-11-21T03:05:09;98778.13;;;9.70;78.39
11212;BME280;5663;50.864;12.096;2023-11-21T03:07:38;98783.97;;;9.74;78.09
11212;BME280;5663;50.864;12.096;2023-11-21T03:10:07;98784.81;;;9.74;78.08
11212;BME280;5663;50.864;12.096;2023-11-21T03:12:37;98793.50;;;9.73;78.04
11212;BME280;5663;50.864;12.096;2023-11-21T03:15:08;98788.50;;;9.70;78.27
11212;BME280;5663;50.864;12.096;2023-11-21T03:17:36;98790.06;;;9.73;78.18
11212;BME280;5663;50.864;12.096;2023-11-21T03:20:04;98787.41;;;9.74;78.08
11212;BME280;5663;50.864;12.096;2023-11-21T03:22:39;98802.22;;;9.72;77.79
11212;BME280;5663;50.864;12.096;2023-11-21T03:25:07;98780.72;;;9.70;77.95
11212;BME280;5663;50.864;12.096;2023-11-21T03:27:37;98787.56;;;9.71;77.98
11212;BME280;5663;50.864;12.096;2023-11-21T03:30:09;98792.00;;;9.69;78.20
11212;BME280;5663;50.864;12.096;2023-11-21T03:32:37;98788.69;;;9.67;78.45
11212;BME280;5663;50.864;12.096;2023-11-21T03:35:05;98791.09;;;9.70;78.02
11212;BME280;5663;50.864;12.096;2023-11-21T03:37:37;98796.28;;;9.70;78.31
11212;BME280;5663;50.864;12.096;2023-11-21T03:40:08;98799.78;;;9.69;78.09
11212;BME280;5663;50.864;12.096;2023-11-21T03:42:37;98798.88;;;9.70;78.37
11212;BME280;5663;50.864;12.096;2023-11-21T03:45:08;98758.91;;;9.43;78.36
11212;BME280;5663;50.864;12.096;2023-11-21T03:47:38;98797.03;;;9.72;78.46
11212;BME280;5663;50.864;12.096;2023-11-21T03:50:07;98799.56;;;9.74;78.20
11212;BME280;5663;50.864;12.096;2023-11-21T03:52:35;98797.78;;;9.74;77.98
11212;BME280;5663;50.864;12.096;2023-11-21T03:55:03;98802.06;;;9.75;78.03
11212;BME280;5663;50.864;12.096;2023-11-21T03:57:31;98800.28;;;9.76;78.03
11212;BME280;5663;50.864;12.096;2023-11-21T03:59:59;98805.59;;;9.74;78.03
11212;BME280;5663;50.864;12.096;2023-11-21T04:02:28;98807.25;;;9.75;78.01
11212;BME280;5663;50.864;12.096;2023-11-21T04:05:01;98804.81;;;9.72;77.83
11212;BME280;5663;50.864;12.096;2023-11-21T04:07:29;98807.59;;;9.69;78.33
11212;BME280;5663;50.864;12.096;2023-11-21T04:09:56;98810.19;;;9.69;78.25
11212;BME280;5663;50.864;12.096;2023-11-21T04:12:24;98811.88;;;9.70;78.28
11212;BME280;5663;50.864;12.096;2023-11-21T04:14:55;98815.31;;;9.71;78.24
11212;BME280;5663;50.864;12.096;2023-11-21T04:17:22;98810.19;;;9.69;78.09
11212;BME280;5663;50.864;12.096;2023-11-21T04:19:57;98817.81;;;9.72;78.18
11212;BME280;5663;50.864;12.096;2023-11-21T04:22:26;98819.47;;;9.73;77.99
11212;BME280;5663;50.864;12.096;2023-11-21T04:25:00;98826.34;;;9.74;77.90
11212;BME280;5663;50.864;12.096;2023-11-21T04:27:28;98828.19;;;9.72;77.91
11212;BME280;5663;50.864;12.096;2023-11-21T04:29:56;98821.50;;;9.68;78.05
11212;BME280;5663;50.864;12.096;2023-11-21T04:32:24;98821.84;;;9.62;78.23
11212;BME280;5663;50.864;12.096;2023-11-21T04:34:51;98829.72;;;9.60;78.55
11212;BME280;5663;50.864;12.096;2023-11-21T04:37:21;98831.47;;;9.60;78.35
11212;BME280;5663;50.864;12.096;2023-11-21T04:39:48;98825.53;;;9.58;78.41
11212;BME280;5663;50.864;12.096;2023-11-21T04:42:23;98833.41;;;9.56;78.59
11212;BME280;5663;50.864;12.096;2023-11-21T04:44:51;98837.75;;;9.56;78.59
11212;BME280;5663;50.864;12.096;2023-11-21T04:47:20;98844.63;;;9.57;78.70
11212;BME280;5663;50.864;12.096;2023-11-21T04:49:47;98844.63;;;9.57;78.82
11212;BME280;5663;50.864;12.096;2023-11-21T04:52:15;98837.03;;;9.54;78.84
11212;BME280;5663;50.864;12.096;2023-11-21T04:54:44;98835.16;;;9.56;78.73
11212;BME280;5663;50.864;12.096;2023-11-21T04:57:12;98845.53;;;9.56;78.63
11212;BME280;5663;50.864;12.096;2023-11-21T04:59:40;98843.88;;;9.55;78.76
11212;BME280;5663;50.864;12.096;2023-11-21T05:02:07;98845.97;;;9.48;78.62
11212;BME280;5663;50.864;12.096;2023-11-21T05:04:35;98857.03;;;9.52;78.29
11212;BME280;5663;50.864;12.096;2023-11-21T05:07:03;98852.34;;;9.43;78.20
11212;BME280;5663;50.864;12.096;2023-11-21T05:09:31;98860.38;;;9.38;78.50
11212;BME280;5663;50.864;12.096;2023-11-21T05:12:00;98857.28;;;9.31;78.01
11212;BME280;5663;50.864;12.096;2023-11-21T05:14:27;98855.00;;;9.25;78.24
11212;BME280;5663;50.864;12.096;2023-11-21T05:16:55;98869.22;;;9.18;78.08
11212;BME280;5663;50.864;12.096;2023-11-21T05:19:22;98871.41;;;9.10;77.75
11212;BME280;5663;50.864;12.096;2023-11-21T05:21:51;98868.38;;;9.02;77.67
11212;BME280;5663;50.864;12.096;2023-11-21T05:24:23;98868.97;;;8.89;77.78
11212;BME280;5663;50.864;12.096;2023-11-21T05:26:52;98867.66;;;8.82;77.22
11212;BME280;5663;50.864;12.096;2023-11-21T05:29:21;98871.47;;;8.75;77.15
11212;BME280;5663;50.864;12.096;2023-11-21T05:31:50;98877.13;;;8.66;76.80
11212;BME280;5663;50.864;12.096;2023-11-21T05:34:19;98844.03;;;8.36;77.22
11212;BME280;5663;50.864;12.096;2023-11-21T05:36:48;98875.38;;;8.49;77.32
11212;BME280;5663;50.864;12.096;2023-11-21T05:39:17;98864.03;;;8.34;76.61
11212;BME280;5663;50.864;12.096;2023-11-21T05:41:48;98878.03;;;8.30;77.68
11212;BME280;5663;50.864;12.096;2023-11-21T05:44:16;98874.06;;;8.23;77.00
11212;BME280;5663;50.864;12.096;2023-11-21T05:46:47;98881.53;;;8.12;76.61
11212;BME280;5663;50.864;12.096;2023-11-21T05:49:17;98880.22;;;8.03;77.06
11212;BME280;5663;50.864;12.096;2023-11-21T05:51:47;98884.09;;;7.95;76.68
11212;BME280;5663;50.864;12.096;2023-11-21T05:54:16;98884.50;;;7.85;76.61
11212;BME280;5663;50.864;12.096;2023-11-21T05:56:44;98881.63;;;7.74;76.36
11212;BME280;5663;50.864;12.096;2023-11-21T05:59:15;98887.06;;;7.68;76.30
11212;BME280;5663;50.864;12.096;2023-11-21T06:01:44;98879.75;;;7.59;76.34
11212;BME280;5663;50.864;12.096;2023-11-21T06:04:13;98880.94;;;7.52;76.43
11212;BME280;5663;50.864;12.096;2023-11-21T06:06:41;98862.22;;;7.28;75.89
11212;BME280;5663;50.864;12.096;2023-11-21T06:09:11;98888.84;;;7.30;75.96
11212;BME280;5663;50.864;12.096;2023-11-21T06:11:40;98897.59;;;7.27;76.07
11212;BME280;5663;50.864;12.096;2023-11-21T06:14:08;98901.22;;;7.23;75.73
11212;BME280;5663;50.864;12.096;2023-11-21T06:16:37;98904.41;;;7.09;76.15
11212;BME280;5663;50.864;12.096;2023-11-21T06:19:06;98885.31;;;6.93;76.06
11212;BME280;5663;50.864;12.096;2023-11-21T06:21:36;98906.66;;;6.98;75.68
11212;BME280;5663;50.864;12.096;2023-11-21T06:24:05;98911.09;;;6.95;75.91
11212;BME280;5663;50.864;12.096;2023-11-21T06:26:34;98919.13;;;6.88;76.11
11212;BME280;5663;50.864;12.096;2023-11-21T06:29:05;98920.16;;;6.84;75.97
11212;BME280;5663;50.864;12.096;2023-11-21T06:31:35;98932.56;;;6.76;75.77
11212;BME280;5663;50.864;12.096;2023-11-21T06:34:03;98929.19;;;6.74;75.81
11212;BME280;5663;50.864;12.096;2023-11-21T06:36:39;98926.88;;;6.68;75.65
11212;BME280;5663;50.864;12.096;2023-11-21T06:39:07;98928.63;;;6.68;75.98
11212;BME280;5663;50.864;12.096;2023-11-21T06:41:36;98942.47;;;6.66;75.69
11212;BME280;5663;50.864;12.096;2023-11-21T06:44:06;98933.31;;;6.58;76.05
11212;BME280;5663;50.864;12.096;2023-11-21T06:46:38;98947.03;;;6.60;75.64
11212;BME280;5663;50.864;12.096;2023-11-21T06:49:09;98941.97;;;6.57;75.47
11212;BME280;5663;50.864;12.096;2023-11-21T06:51:39;98942.09;;;6.54;75.42
11212;BME280;5663;50.864;12.096;2023-11-21T06:54:07;98948.91;;;6.56;75.46
11212;BME280;5663;50.864;12.096;2023-11-21T06:56:35;98946.38;;;6.55;75.72
11212;BME280;5663;50.864;12.096;2023-11-21T06:59:03;98950.66;;;6.56;75.43
11212;BME280;5663;50.864;12.096;2023-11-21T07:01:32;98951.41;;;6.58;75.75
11212;BME280;5663;50.864;12.096;2023-11-21T07:04:07;98958.19;;;6.60;75.81
11212;BME280;5663;50.864;12.096;2023-11-21T07:06:36;98965.63;;;6.68;76.03
11212;BME280;5663;50.864;12.096;2023-11-21T07:09:06;98967.09;;;6.74;76.02
11212;BME280;5663;50.864;12.096;2023-11-21T07:11:39;98975.22;;;6.86;76.03
11212;BME280;5663;50.864;12.096;2023-11-21T07:14:07;98970.72;;;6.90;76.39
11212;BME280;5663;50.864;12.096;2023-11-21T07:16:38;98978.75;;;7.04;76.42
11212;BME280;5663;50.864;12.096;2023-11-21T07:19:09;98974.53;;;7.02;76.63
11212;BME280;5663;50.864;12.096;2023-11-21T07:21:39;98987.84;;;7.13;76.88
11212;BME280;5663;50.864;12.096;2023-11-21T07:24:10;98987.72;;;7.16;76.59
11212;BME280;5663;50.864;12.096;2023-11-21T07:26:39;98984.94;;;7.21;76.29
11212;BME280;5663;50.864;12.096;2023-11-21T07:29:08;98996.63;;;7.29;76.59
11212;BME280;5663;50.864;12.096;2023-11-21T07:31:39;99001.53;;;7.35;76.73
11212;BME280;5663;50.864;12.096;2023-11-21T07:34:08;98993.50;;;7.41;76.45
11212;BME280;5663;50.864;12.096;2023-11-21T07:36:37;98996.66;;;7.48;77.07
11212;BME280;5663;50.864;12.096;2023-11-21T07:39:05;98998.91;;;7.56;77.20
11212;BME280;5663;50.864;12.096;2023-11-21T07:41:36;98997.72;;;7.63;76.52
11212;BME280;5663;50.864;12.096;2023-11-21T07:44:05;98981.72;;;7.55;77.27
11212;BME280;5663;50.864;12.096;2023-11-21T07:46:34;99003.19;;;7.76;77.51
11212;BME280;5663;50.864;12.096;2023-11-21T07:49:02;98995.34;;;7.77;77.24
11212;BME280;5663;50.864;12.096;2023-11-21T07:51:31;98936.31;;;7.48;77.29
11212;BME280;5663;50.864;12.096;2023-11-21T07:53:58;99003.34;;;7.92;77.49
11212;BME280;5663;50.864;12.096;2023-11-21T07:56:27;98997.38;;;7.89;77.46
11212;BME280;5663;50.864;12.096;2023-11-21T07:58:57;99020.97;;;8.02;77.23
11212;BME280;5663;50.864;12.096;2023-11-21T08:01:25;99010.31;;;8.08;77.43
11212;BME280;5663;50.864;12.096;2023-11-21T08:03:54;99019.56;;;8.14;77.80
11212;BME280;5663;50.864;12.096;2023-11-21T08:06:25;99017.72;;;8.16;77.70
11212;BME280;5663;50.864;12.096;2023-11-21T08:08:53;99026.75;;;8.26;77.59
11212;BME280;5663;50.864;12.096;2023-11-21T08:11:20;99025.53;;;8.33;77.64
11212;BME280;5663;50.864;12.096;2023-11-21T08:13:48;99024.56;;;8.36;77.91
11212;BME280;5663;50.864;12.096;2023-11-21T08:16:18;99023.53;;;8.40;78.37
11212;BME280;5663;50.864;12.096;2023-11-21T08:18:46;99022.19;;;8.50;78.51
11212;BME280;5663;50.864;12.096;2023-11-21T08:21:14;99023.63;;;8.56;77.99
11212;BME280;5663;50.864;12.096;2023-11-21T08:23:43;99034.47;;;8.64;78.67
11212;BME280;5663;50.864;12.096;2023-11-21T08:26:12;99034.19;;;8.70;78.61
11212;BME280;5663;50.864;12.096;2023-11-21T08:28:39;99037.31;;;8.77;78.36
11212;BME280;5663;50.864;12.096;2023-11-21T08:31:08;99031.00;;;8.82;78.53
11212;BME280;5663;50.864;12.096;2023-11-21T08:33:40;99020.09;;;8.76;78.16
11212;BME280;5663;50.864;12.096;2023-11-21T08:36:10;99031.47;;;8.91;78.14
11212;BME280;5663;50.864;12.096;2023-11-21T08:38:38;99041.38;;;9.00;78.35
11212;BME280;5663;50.864;12.096;2023-11-21T08:41:08;99048.91;;;9.04;78.23
11212;BME280;5663;50.864;12.096;2023-11-21T08:43:36;99049.59;;;9.08;78.24
11212;BME280;5663;50.864;12.096;2023-11-21T08:46:07;99052.78;;;9.13;78.43
11212;BME280;5663;50.864;12.096;2023-11-21T08:48:36;99012.97;;;8.97;79.03
11212;BME280;5663;50.864;12.096;2023-11-21T08:51:11;99040.22;;;9.23;78.79
11212;BME280;5663;50.864;12.096;2023-11-21T08:53:40;99048.50;;;9.29;78.70
11212;BME280;5663;50.864;12.096;2023-11-21T08:56:12;99015.63;;;9.12;79.02
11212;BME280;5663;50.864;12.096;2023-11-21T08:58:39;99043.13;;;9.34;79.30
11212;BME280;5663;50.864;12.096;2023-11-21T09:01:08;99046.22;;;9.41;79.03
11212;BME280;5663;50.864;12.096;2023-11-21T09:03:36;99053.69;;;9.47;79.22
11212;BME280;5663;50.864;12.096;2023-11-21T09:06:06;99061.16;;;9.53;79.59
11212;BME280;5663;50.864;12.096;2023-11-21T09:08:37;99064.38;;;9.58;79.26
11212;BME280;5663;50.864;12.096;2023-11-21T09:11:08;99060.69;;;9.62;79.37
11212;BME280;5663;50.864;12.096;2023-11-21T09:13:35;99032.16;;;9.45;79.30
11212;BME280;5663;50.864;12.096;2023-11-21T09:16:03;99069.06;;;9.67;79.45
11212;BME280;5663;50.864;12.096;2023-11-21T09:18:31;99066.38;;;9.69;79.64
11212;BME280;5663;50.864;12.096;2023-11-21T09:20:59;99067.06;;;9.72;79.58
11212;BME280;5663;50.864;12.096;2023-11-21T09:23:27;99063.53;;;9.73;79.57
11212;BME280;5663;50.864;12.096;2023-11-21T09:25:56;99065.84;;;9.79;79.81
11212;BME280;5663;50.864;12.096;2023-11-21T09:28:31;99047.31;;;9.70;79.97
11212;BME280;5663;50.864;12.096;2023-11-21T09:30:59;99068.44;;;9.79;80.02
11212;BME280;5663;50.864;12.096;2023-11-21T09:33:29;99077.50;;;9.88;79.80
11212;BME280;5663;50.864;12.096;2023-11-21T09:35:58;99079.00;;;9.92;79.90
11212;BME280;5663;50.864;12.096;2023-11-21T09:38:25;99078.84;;;9.95;79.83
11212;BME280;5663;50.864;12.096;2023-11-21T09:40:58;99095.13;;;9.99;79.89
11212;BME280;5663;50.864;12.096;2023-11-21T09:43:30;99094.97;;;10.02;79.84
11212;BME280;5663;50.864;12.096;2023-11-21T09:46:02;99094.97;;;10.02;80.03
11212;BME280;5663;50.864;12.096;2023-11-21T09:48:37;99102.50;;;10.06;80.05
11212;BME280;5663;50.864;12.096;2023-11-21T09:51:09;99095.63;;;10.05;79.93
11212;BME280;5663;50.864;12.096;2023-11-21T09:53:39;99101.47;;;10.09;79.87
11212;BME280;5663;50.864;12.096;2023-11-21T09:56:14;99092.78;;;10.10;79.99
11212;BME280;5663;50.864;12.096;2023-11-21T09:58:46;99102.16;;;10.12;79.98
11212;BME280;5663;50.864;12.096;2023-11-21T10:01:16;99101.25;;;10.14;79.83
11212;BME280;5663;50.864;12.096;2023-11-21T10:03:45;99102.41;;;10.08;79.68
11212;BME280;5663;50.864;12.096;2023-11-21T10:06:13;99111.88;;;10.09;80.01
11212;BME280;5663;50.864;12.096;2023-11-21T10:08:42;99104.09;;;10.09;80.08
11212;BME280;5663;50.864;12.096;2023-11-21T10:11:15;99110.06;;;10.11;80.10
11212;BME280;5663;50.864;12.096;2023-11-21T10:13:46;99097.81;;;10.13;80.07
11212;BME280;5663;50.864;12.096;2023-11-21T10:16:16;99103.94;;;10.12;79.87
11212;BME280;5663;50.864;12.096;2023-11-21T10:18:51;99094.78;;;10.05;79.97
11212;BME280;5663;50.864;12.096;2023-11-21T10:21:21;99101.31;;;10.12;80.06
11212;BME280;5663;50.864;12.096;2023-11-21T10:23:51;99109.06;;;10.14;80.17
11212;BME280;5663;50.864;12.096;2023-11-21T10:26:22;99105.53;;;10.15;80.10
11212;BME280;5663;50.864;12.096;2023-11-21T10:28:57;99092.19;;;10.05;80.45
11212;BME280;5663;50.864;12.096;2023-11-21T10:31:27;99111.56;;;10.15;80.26
11212;BME280;5663;50.864;12.096;2023-11-21T10:34:11;99113.06;;;10.19;80.33
11212;BME280;5663;50.864;12.096;2023-11-21T10:36:40;99117.28;;;10.22;80.39
11212;BME280;5663;50.864;12.096;2023-11-21T10:39:14;99109.97;;;10.12;80.57
11212;BME280;5663;50.864;12.096;2023-11-21T10:41:45;99127.00;;;10.18;80.30
11212;BME280;5663;50.864;12.096;2023-11-21T10:44:14;99101.81;;;10.03;80.76
11212;BME280;5663;50.864;12.096;2023-11-21T10:46:46;99137.56;;;10.15;80.45
11212;BME280;5663;50.864;12.096;2023-11-21T10:49:17;99126.31;;;10.15;80.50
11212;BME280;5663;50.864;12.096;2023-11-21T10:51:53;99120.44;;;10.11;80.53
11212;BME280;5663;50.864;12.096;2023-11-21T10:54:23;99127.91;;;10.17;80.67
11212;BME280;5663;50.864;12.096;2023-11-21T10:56:55;99106.03;;;10.05;80.53
11212;BME280;5663;50.864;12.096;2023-11-21T10:59:29;99134.59;;;10.21;80.98
11212;BME280;5663;50.864;12.096;2023-11-21T11:01:57;99124.31;;;10.20;80.60
11212;BME280;5663;50.864;12.096;2023-11-21T11:04:27;99124.41;;;10.18;80.53
11212;BME280;5663;50.864;12.096;2023-11-21T11:07:08;99132.78;;;10.23;80.36
11212;BME280;5663;50.864;12.096;2023-11-21T11:09:39;99134.53;;;10.23;80.58
11212;BME280;5663;50.864;12.096;2023-11-21T11:12:21;99117.50;;;10.17;80.42
11212;BME280;5663;50.864;12.096;2023-11-21T11:14:51;99130.91;;;10.27;80.37
11212;BME280;5663;50.864;12.096;2023-11-21T11:17:38;99128.38;;;10.25;80.36
11212;BME280;5663;50.864;12.096;2023-11-21T11:20:08;99134.59;;;10.21;80.61
11212;BME280;5663;50.864;12.096;2023-11-21T11:22:41;99131.84;;;10.24;80.47
11212;BME280;5663;50.864;12.096;2023-11-21T11:25:25;99140.47;;;10.26;80.59
11212;BME280;5663;50.864;12.096;2023-11-21T11:28:04;99127.00;;;10.18;80.41
11212;BME280;5663;50.864;12.096;2023-11-21T11:30:41;99129.50;;;10.20;80.34
11212;BME280;5663;50.864;12.096;2023-11-21T11:33:22;99135.25;;;10.26;80.43
11212;BME280;5663;50.864;12.096;2023-11-21T11:36:01;99152.53;;;10.27;80.33
11212;BME280;5663;50.864;12.096;2023-11-21T11:38:31;99151.69;;;10.27;80.35
11212;BME280;5663;50.864;12.096;2023-11-21T11:41:04;99162.09;;;10.27;80.43
11212;BME280;5663;50.864;12.096;2023-11-21T11:43:34;99159.56;;;10.25;80.49
11212;BME280;5663;50.864;12.096;2023-11-21T11:46:13;99147.78;;;10.18;80.42
11212;BME280;5663;50.864;12.096;2023-11-21T11:48:44;99159.19;;;10.16;80.72
11212;BME280;5663;50.864;12.096;2023-11-21T11:51:15;99165.34;;;10.13;81.07
11212;BME280;5663;50.864;12.096;2023-11-21T11:53:46;99126.78;;;9.90;81.05
11212;BME280;5663;50.864;12.096;2023-11-21T11:56:25;99155.16;;;10.10;81.31
11212;BME280;5663;50.864;12.096;2023-11-21T11:58:56;99160.16;;;10.13;81.32
11212;BME280;5663;50.864;12.096;2023-11-21T12:01:25;99155.75;;;10.15;81.06
11212;BME280;5663;50.864;12.096;2023-11-21T12:04:25;99129.47;;;10.04;81.39
11212;BME280;5663;50.864;12.096;2023-11-21T12:07:01;99156.19;;;10.23;80.88
11212;BME280;5663;50.864;12.096;2023-11-21T12:09:31;99163.84;;;10.26;80.97
11212;BME280;5663;50.864;12.096;2023-11-21T12:11:59;99171.66;;;10.26;80.97
11212;BME280;5663;50.864;12.096;2023-11-21T12:14:32;99170.63;;;10.29;80.87
11212;BME280;5663;50.864;12.096;2023-11-21T12:17:01;99176.69;;;10.29;80.74
11212;BME280;5663;50.864;12.096;2023-11-21T12:19:31;99174.97;;;10.28;80.68
11212;BME280;5663;50.864;12.096;2023-11-21T12:22:00;99173.31;;;10.27;80.79
11212;BME280;5663;50.864;12.096;2023-11-21T12:24:28;99156.81;;;10.11;80.77
11212;BME280;5663;50.864;12.096;2023-11-21T12:26:57;99184.53;;;10.28;80.72
11212;BME280;5663;50.864;12.096;2023-11-21T12:29:25;99190.56;;;10.28;80.66
11212;BME280;5663;50.864;12.096;2023-11-21T12:31:57;99190.06;;;10.22;80.68
11212;BME280;5663;50.864;12.096;2023-11-21T12:34:24;99203.44;;;10.14;80.84
11212;BME280;5663;50.864;12.096;2023-11-21T12:36:53;99208.88;;;10.09;80.82
11212;BME280;5663;50.864;12.096;2023-11-21T12:39:22;99206.44;;;10.06;80.63
11212;BME280;5663;50.864;12.096;2023-11-21T12:41:50;99214.38;;;10.03;80.78
11212;BME280;5663;50.864;12.096;2023-11-21T12:44:18;99215.94;;;9.90;80.54
11212;BME280;5663;50.864;12.096;2023-11-21T12:46:45;99224.25;;;9.79;80.68
11212;BME280;5663;50.864;12.096;2023-11-21T12:49:14;99226.06;;;9.77;81.04
11212;BME280;5663;50.864;12.096;2023-11-21T12:51:45;99230.59;;;9.74;80.93
11212;BME280;5663;50.864;12.096;2023-11-21T12:54:15;99212.94;;;9.63;80.76
11212;BME280;5663;50.864;12.096;2023-11-21T12:56:45;99237.69;;;9.70;80.42
11212;BME280;5663;50.864;12.096;2023-11-21T12:59:15;99232.78;;;9.64;80.54
11212;BME280;5663;50.864;12.096;2023-11-21T13:01:44;99232.78;;;9.64;80.49
11212;BME280;5663;50.864;12.096;2023-11-21T13:04:12;99238.78;;;9.66;80.17
11212;BME280;5663;50.864;12.096;2023-11-21T13:06:43;99239.66;;;9.65;79.94
11212;BME280;5663;50.864;12.096;2023-11-21T13:09:11;99247.63;;;9.62;80.28
11212;BME280;5663;50.864;12.096;2023-11-21T13:11:44;99238.91;;;9.63;79.98
11212;BME280;5663;50.864;12.096;2023-11-21T13:14:12;99245.91;;;9.61;80.01
11212;BME280;5663;50.864;12.096;2023-11-21T13:16:41;99247.16;;;9.54;79.85
11212;BME280;5663;50.864;12.096;2023-11-21T13:19:13;99243.88;;;9.50;79.81
11212;BME280;5663;50.864;12.096;2023-11-21T13:21:44;99259.19;;;9.37;79.88
11212;BME280;5663;50.864;12.096;2023-11-21T13:24:13;99261.38;;;9.28;80.05
11212;BME280;5663;50.864;12.096;2023-11-21T13:26:40;99261.72;;;9.20;80.03